Hamersville, OH (45130)

11:19 AM EDT on July 25, 2016 (GMT -0400)
APRSWXNET | | Change Station
Active Advisory: Heat Advisory

Elev 918 ft 38.86 °N, 83.90 °W | Updated 17 minutes ago

Mostly Cloudy
Mostly Cloudy
88 °F
Feels Like 103 °F
N
2
Wind Variable Wind from SW
Gusts 0.0 mph

Today
High -- | Low -- °F
--% Chance of Precip.
Yesterday
High -- | Low -- °F
Precip. -- in
Pressure 30.02 in
Visibility 10.0 miles
Clouds Mostly Cloudy 2700 ft
Mostly Cloudy 3300 ft
Mostly Cloudy 4200 ft
Heat Index 103 °F
Dew Point 79 °F
Humidity 74%
Rainfall in
Snow Depth Not available.
6:31 AM 8:53 PM
Waning Gibbous, 65% visible
METAR KI69 251514Z AUTO 25007KT 10SM BKN027 BKN033 BKN042 31/24 A3002 RMK AO2 T03050238
Pressure 30.02 in
Visibility 10.0 miles
Clouds Mostly Cloudy 2700 ft
Mostly Cloudy 3300 ft
Mostly Cloudy 4200 ft
Heat Index 103 °F
Dew Point 79 °F
Humidity 74%
Rainfall in
Snow Depth Not available.
6:31 AM 8:53 PM
Waning Gibbous, 65% visible
METAR KI69 251514Z AUTO 25007KT 10SM BKN027 BKN033 BKN042 31/24 A3002 RMK AO2 T03050238

10-Day Weather Forecast

Almanac

Astronomy

Jul. 25, 2016 Rise Set
Actual Time
Civil Twilight
Nautical Twilight
Astronomical Twilight
Moon
Length of Visible Light
Length of Day
Tomorrow will be .
, % of the Moon is Illuminated

Today's Extremes

State Highs State Lows

Community

WunderPhotos

Upload Photos

1,927,314 photos uploaded!

WunderBlog® & News

Nearby

Air Quality

  Air Quality AQ Index Pollutant
Not available.

Snow Depth

Station Depth Elevation

Earthquake Activity

City Distance Mag. Time & Date
Minimum magnitude displayed is 2.5.

Coastal Water Temperatures

Place Temperature

Stations

Nearby Weather Stations

Station Location Temp. Windchill Dew Point Humidity Wind Precip. Elev Updated Type
                   

Watches & Warnings

Heat Advisory
Issued: 10:53 AM EDT Jul. 25, 2016 – National Weather Service

... Heat advisory remains in effect until 8 PM EDT this evening...

* heat index values... 100 to 104 due to temperatures in the
lower 90s... and dewpoints in the lower to middle 70s.

* Timing... highest temperatures and heat indices will occur
during the afternoon to early evening hours.

* Impacts... heat stroke... heat exhaustion and other heat related
illnesses will be possible... especially if you spend a
significant amount of time outdoors... or are involved in any
strenuous outdoor activity.

Precautionary/preparedness actions...

Reduce outdoor activities... especially from mid-morning through
the afternoon. Wear light weight and loose fitting clothing and
drink plenty of water. If possible... spend more time in air
conditioned or well ventilated places.

To reduce risk during outdoor work the occupational safety and
health administration recommends scheduling frequent rest breaks
in shaded or air conditioned environments. Anyone overcome by
heat should be moved to a cool and shaded location. Heat stroke
is an emergency... call 911.